Terminal Aerodrome Forecast
Issued by NWS Raleigh/Durham, NC

Home | Current Version | Previous Version | Text Only | Print | Product List | Glossary On
Versions: 1 2 3 4 5 6 7 8 9 10 11 12 13 14 15 16 17 18 19 20 21 22 23 24 25 26 27 28 29 30 31 32 33 34 35 36 37
862
FTUS42 KRAH 301736
TAFGSO
TAF
KGSO 301736Z 3018/3118 06008KT P6SM SCT018 BKN060
      TEMPO 3018/3022 BKN018
     FM310800 VRB03KT 5SM BR BKN015
     FM311400 05006KT P6SM SCT015 BKN035=

USA.gov is the U.S. government's official web portal to all federal, state and local government web resources and services.